Airfield :
LOGIN :

Register | Disclaimer

   EN    FR    IT 

 










Legend :    VFR   Marginal VFR   IFR   Intensive IFR   Very Intensive IFR
Visi :
Ceiling :
>= 8 km
>= 3000ft
5 to 8 km
1000 to 3000 ft
1500m to 5 km
500 to 1000 ft
800 to 1500m
200 to 500 ft
< 800m
< 200 ft
Symbols :   Thunderstorms  Fog  Heavy snow  Heavy precipitations  Wind > 20 kt
SIGMETs :     Misc.  Thunderstorms  Icing  Turbulence  Mountain Waves  Volcanic Ashes







- Airport Elevation : 1300 ft
- IATA code : LIG
- Download approach charts


LFBL - Limoges

CURRENT METAR :
  • 210230Z AUTO 09004KT CAVOK 13/09 Q1013 NOSIG

EXPIRED METARs :
  • 210200Z AUTO 07004KT CAVOK 14/09 Q1013 NOSIG
  • 210130Z AUTO 06004KT CAVOK 14/10 Q1013 NOSIG
  • 210100Z AUTO 05004KT CAVOK 15/10 Q1013 NOSIG
  • 210030Z AUTO 09005KT CAVOK 15/10 Q1013 NOSIG
  • 210000Z AUTO 05007KT CAVOK 16/10 Q1013 NOSIG

TAF TAF LFBL
Valid from the 21 at 00:00 until the 22 at 00:00 UTC


202300Z 2100/2124 VRB03KT CAVOK
BECMG 2109/2111 SCT030 SCT040TCU
TEMPO 2111/2121 4000 SHRA SCT050CB
PROB40
TEMPO 2113/2121 VRB15G25KT TSRA
PROB30
TEMPO 2113/2119 TSGR
ATIS : +33 5 55 48 40 37
No reported NOTAMs for that airfield.



MET'MAP, your aeronautical weather chart ! - Copyright ORBIFLY December 2007 - Disclaimer

ORBIFLY MET'MAP TEAM :

Programming & Development : Alexandra Zaïnal
Concept & Development : Baudouin d'Aumeries
Co-Development & Prog : Marc-Olivier Méhu
Technical & hardware support : Manuel Goepfert

Contact : metmap@orbifly.com




SOURCES & CREDITS :

   NOAA